Watauga Observed Data For Previous 48 Hours

Caption
Day and Hour Reservoir Elevation (behind dam)* Tailwater Elevation (below dam)* Average Hourly Discharge*
6/20/2018 2 AM EDT 1,959.48 1,647.52 0
6/20/2018 3 AM EDT 1,959.48 1,647.34 0
6/20/2018 4 AM EDT 1,959.48 1,647.42 0
6/20/2018 5 AM EDT 1,959.48 1,648.14 985
6/20/2018 6 AM EDT 1,959.48 1,647.95 0
6/20/2018 7 AM EDT 1,959.48 1,647.68 0
6/20/2018 8 AM EDT 1,959.48 1,647.24 0
6/20/2018 9 AM EDT 1,959.48 1,647.14 0
6/20/2018 10 AM EDT 1,959.48 1,647.12 0
6/20/2018 11 AM EDT 1,959.48 1,647.27 0
6/20/2018 12 PM EDT 1,959.48 1,649.83 1,245
6/20/2018 1 PM EDT 1,959.48 1,651.29 2,332
6/20/2018 2 PM EDT 1,959.48 1,649.82 1,311
6/20/2018 3 PM EDT 1,959.48 1,649.81 1,254
6/20/2018 4 PM EDT 1,959.48 1,649.82 1,258
6/20/2018 5 PM EDT 1,959.48 1,649.81 1,256
6/20/2018 6 PM EDT 1,959.46 1,649.82 1,261
6/20/2018 7 PM EDT 1,959.44 1,649.81 1,254
6/20/2018 8 PM EDT 1,959.44 1,649.81 1,254
6/20/2018 9 PM EDT 1,959.43 1,649.88 1,255
6/20/2018 10 PM EDT 1,959.43 1,648.62 358
6/20/2018 11 PM EDT 1,959.43 1,648.39 0
6/21/2018 12 AM EDT 1,959.43 1,648.17 0
6/21/2018 1 AM EDT 1,959.43 1,647.92 0
6/21/2018 2 AM EDT 1,959.43 1,647.61 0
6/21/2018 3 AM EDT 1,959.43 1,647.37 0
6/21/2018 4 AM EDT 1,959.43 1,647.21 0
6/21/2018 5 AM EDT 1,959.43 1,647.32 0
6/21/2018 6 AM EDT 1,959.43 1,647.78 979
6/21/2018 7 AM EDT 1,959.43 1,647.52 0
6/21/2018 8 AM EDT 1,959.43 1,647.28 0
6/21/2018 9 AM EDT 1,959.43 1,647.17 0
6/21/2018 10 AM EDT 1,959.43 1,647.13 0
6/21/2018 11 AM EDT 1,959.43 1,647.36 0
6/21/2018 12 PM EDT 1,959.43 1,651.27 1,865
6/21/2018 1 PM EDT 1,959.41 1,650.21 1,753
6/21/2018 2 PM EDT 1,959.41 1,650.17 1,494
6/21/2018 3 PM EDT 1,959.40 1,650.15 1,484
6/21/2018 4 PM EDT 1,959.38 1,650.15 1,493
6/21/2018 5 PM EDT 1,959.35 1,650.12 1,488
6/21/2018 6 PM EDT 1,959.35 1,650.12 1,481
6/21/2018 7 PM EDT 1,959.33 1,649.82 1,259
6/21/2018 8 PM EDT 1,959.33 1,649.82 1,256
6/21/2018 9 PM EDT - 999.00 - 999.00 1,258
6/21/2018 10 PM EDT 1,959.31 - 999.00 1,256
6/21/2018 11 PM EDT 1,959.30 1,649.84 1,255
6/22/2018 12 AM EDT 1,959.30 1,647.34 45

Elevations are in feet above sea level. Discharges are in cubic feet per second and are reported at the end of the hour.